Time;durP1;ratioP1;P1;durP2;ratioP2;P2;SDS_P1;SDS_P2;PMS_P1;PMS_P2;Temp;Humidity;BMP_temperature;BMP_pressure;BME280_temperature;BME280_humidity;BME280_pressure;Samples;Min_cycle;Max_cycle;Signal;HPM_P1;HPM_P2
2023/04/21 00:00:31;;;;;;;6.40;3.90;;;;;;;8.82;66.02;96945.22;110521;1241;69081;-72
2023/04/21 00:03:20;;;;;;;5.50;2.20;;;;;;;8.83;66.29;96949.00;110494;1241;69636;-72
2023/04/21 00:05:50;;;;;;;2.90;2.30;;;;;;;8.83;66.26;96955.23;110453;1241;59696;-72
2023/04/21 00:08:21;;;;;;;5.00;2.40;;;;;;;8.84;66.51;96958.63;110505;1241;59663;-72
2023/04/21 00:10:51;;;;;;;3.50;1.80;;;;;;;8.83;67.16;96961.01;110483;1241;71954;-72
2023/04/21 00:13:21;;;;;;;3.10;2.20;;;;;;;8.80;67.16;96955.97;110543;1244;69779;-72
2023/04/21 00:15:52;;;;;;;2.40;1.80;;;;;;;8.79;67.64;96956.39;110181;1241;68332;-73
2023/04/21 00:18:21;;;;;;;3.70;2.00;;;;;;;8.78;67.76;96955.48;110392;1247;59740;-73
2023/04/21 00:20:51;;;;;;;3.60;2.50;;;;;;;8.76;67.88;96960.42;110471;1241;60201;-72
2023/04/21 00:23:21;;;;;;;5.20;2.40;;;;;;;8.74;68.20;96958.90;110417;1241;72000;-72
2023/04/21 00:25:52;;;;;;;3.60;2.10;;;;;;;8.70;69.32;96962.10;110409;1241;69243;-72
2023/04/21 00:28:22;;;;;;;3.50;2.00;;;;;;;8.65;69.86;96957.23;110401;1241;69343;-71
2023/04/21 00:30:53;;;;;;;3.10;2.40;;;;;;;8.62;70.18;96960.20;110449;1241;59699;-71
2023/04/21 00:33:22;;;;;;;3.90;2.50;;;;;;;8.59;70.46;96959.73;110347;1241;59677;-71
2023/04/21 00:35:53;;;;;;;3.50;2.30;;;;;;;8.56;71.02;96958.77;110368;1240;71286;-71
2023/04/21 00:38:25;;;;;;;4.30;2.50;;;;;;;8.53;71.98;96959.86;110332;1241;68282;-72
2023/04/21 00:40:56;;;;;;;2.80;1.60;;;;;;;8.52;70.85;96957.13;110598;1240;67609;-73
2023/04/21 00:43:27;;;;;;;6.10;3.20;;;;;;;8.54;70.01;96955.80;110935;1242;59734;-72
2023/04/21 00:45:57;;;;;;;6.60;3.10;;;;;;;8.51;69.78;96953.92;110473;1241;59681;-73
2023/04/21 00:48:27;;;;;;;;;;;;;;;8.47;70.00;96951.75;110562;1241;71379;-72
2023/04/21 00:50:58;;;;;;;4.90;2.60;;;;;;;8.45;72.08;96953.10;110535;1241;67660;-72
2023/04/21 00:53:30;;;;;;;6.20;3.00;;;;;;;8.46;74.86;96949.25;110522;1243;69316;-72
2023/04/21 00:55:59;;;;;;;;;;;;;;;8.45;74.46;96946.70;110407;1242;59734;-72
2023/04/21 00:58:31;;;;;;;2.30;2.00;;;;;;;8.43;74.54;96945.14;110206;1242;59711;-72
2023/04/21 01:01:01;;;;;;;5.10;2.70;;;;;;;8.41;73.87;96948.23;110389;1241;70724;-72
2023/04/21 01:03:31;;;;;;;4.50;2.50;;;;;;;8.35;75.20;96950.33;110222;1242;68178;-72
2023/04/21 01:06:08;;;;;;;4.20;2.50;;;;;;;8.29;76.73;96947.34;110355;1242;68332;-72
2023/04/21 01:08:38;;;;;;;2.20;2.00;;;;;;;8.21;77.30;96945.62;110351;1241;59730;-72
2023/04/21 01:11:13;;;;;;;4.20;2.50;;;;;;;8.15;77.07;96944.27;110396;1241;59662;-72
2023/04/21 01:13:43;;;;;;;4.00;1.90;;;;;;;8.12;75.38;96946.54;110371;1241;71282;-72
2023/04/21 01:16:17;;;;;;;2.50;1.60;;;;;;;8.10;75.55;96946.20;110181;1242;69627;-71
2023/04/21 01:18:47;;;;;;;2.00;1.60;;;;;;;8.11;74.66;96945.92;110375;1244;68404;-72
2023/04/21 01:21:20;;;;;;;3.30;1.60;;;;;;;8.15;73.85;96948.82;110342;1241;59698;-72
2023/04/21 01:23:50;;;;;;;2.60;1.70;;;;;;;8.18;73.60;96948.23;110415;1241;59675;-72
2023/04/21 01:26:21;;;;;;;2.00;1.60;;;;;;;8.24;73.48;96948.20;110425;1241;71395;-72
2023/04/21 01:28:50;;;;;;;;;;;;;;;8.28;73.08;96945.65;110479;1241;69244;-72
2023/04/21 01:31:22;;;;;;;4.00;2.00;;;;;;;8.31;74.25;96943.34;110465;1242;68331;-72
2023/04/21 01:33:54;;;;;;;4.10;2.20;;;;;;;8.33;73.72;96948.42;110434;1245;59741;-72
2023/04/21 01:36:24;;;;;;;3.40;2.80;;;;;;;8.33;72.23;96950.35;110416;1241;59634;-72
2023/04/21 01:38:54;;;;;;;3.50;2.80;;;;;;;8.28;72.98;96953.95;110534;1241;70710;-73
2023/04/21 01:41:23;;;;;;;4.90;3.00;;;;;;;8.24;78.12;96955.66;110528;1239;69698;-73
2023/04/21 01:43:56;;;;;;;5.20;2.50;;;;;;;8.20;78.24;96959.05;110304;1240;69518;-72
2023/04/21 01:46:27;;;;;;;4.00;1.80;;;;;;;8.15;81.80;96957.11;110648;1241;59668;-72
2023/04/21 01:48:59;;;;;;;2.70;1.50;;;;;;;8.11;81.15;96960.19;111114;1242;59746;-73
2023/04/21 01:51:28;;;;;;;3.30;1.60;;;;;;;8.08;82.56;96960.55;110514;1241;71308;-72
2023/04/21 01:54:00;;;;;;;1.80;1.30;;;;;;;8.06;82.62;96957.04;110579;1241;69123;-73
2023/04/21 01:56:31;;;;;;;4.40;1.30;;;;;;;8.04;82.27;96957.67;110391;1241;69918;-72
2023/04/21 01:59:03;;;;;;;1.50;1.30;;;;;;;7.99;83.13;96956.51;110304;1240;59711;-72
2023/04/21 02:01:34;;;;;;;2.00;1.50;;;;;;;7.94;82.91;96957.36;110479;1241;59673;-72
2023/04/21 02:04:05;;;;;;;2.80;1.70;;;;;;;7.90;82.46;96955.09;110278;1243;71402;-72
2023/04/21 02:06:37;;;;;;;2.00;1.80;;;;;;;7.85;81.88;96948.66;110249;1240;69176;-72
2023/04/21 02:09:08;;;;;;;2.50;1.40;;;;;;;7.82;81.85;96945.03;110183;1240;69549;-72
2023/04/21 02:11:39;;;;;;;2.60;1.60;;;;;;;7.79;83.00;96942.79;110356;1241;59693;-72
2023/04/21 02:14:10;;;;;;;2.20;1.40;;;;;;;7.78;81.63;96941.53;110524;1241;59675;-71
2023/04/21 02:16:41;;;;;;;2.60;1.70;;;;;;;7.73;82.67;96938.00;110410;1241;71271;-71
2023/04/21 02:19:13;;;;;;;1.80;1.30;;;;;;;7.72;82.55;96936.89;110410;1240;69470;-72
2023/04/21 02:21:43;;;;;;;2.80;1.80;;;;;;;7.72;82.40;96933.23;110207;1242;68524;-72
2023/04/21 02:24:13;;;;;;;;;;;;;;;7.72;83.04;96931.17;110521;1241;59757;-72
2023/04/21 02:26:43;;;;;;;3.10;1.60;;;;;;;7.71;83.15;96930.38;110215;1242;59644;-72
2023/04/21 02:29:16;;;;;;;2.10;1.70;;;;;;;7.70;83.35;96932.84;110414;1240;71194;-72
2023/04/21 02:31:48;;;;;;;3.60;1.60;;;;;;;7.68;84.26;96934.73;110340;1241;69780;-72
2023/04/21 02:34:32;;;;;;;2.00;1.40;;;;;;;7.66;84.44;96935.36;110409;1241;69187;-72
2023/04/21 02:37:05;;;;;;;1.80;1.40;;;;;;;7.64;84.93;96932.39;110388;1241;59683;-72
2023/04/21 02:39:35;;;;;;;1.90;1.30;;;;;;;7.61;84.03;96929.59;110374;1241;59674;-72
2023/04/21 02:42:06;;;;;;;2.20;1.10;;;;;;;7.60;82.76;96929.71;110215;1240;70679;-72
2023/04/21 02:44:37;;;;;;;2.50;1.30;;;;;;;7.58;81.53;96930.20;110419;1241;69149;-72
2023/04/21 02:47:08;;;;;;;2.40;2.00;;;;;;;7.56;81.01;96931.37;110307;1241;69362;-72
2023/04/21 02:49:42;;;;;;;2.70;1.80;;;;;;;7.56;80.92;96932.58;110347;1242;59730;-72
2023/04/21 02:52:13;;;;;;;4.10;2.70;;;;;;;7.55;80.03;96932.86;110634;1241;59649;-72
2023/04/21 02:54:43;;;;;;;6.40;2.40;;;;;;;7.52;83.22;96933.03;111063;1241;70363;-71
2023/04/21 02:57:13;;;;;;;3.20;1.90;;;;;;;7.50;82.69;96934.71;110443;1242;69258;-72
2023/04/21 02:59:44;;;;;;;3.30;2.00;;;;;;;7.50;84.80;96936.50;110531;1241;69394;-71
2023/04/21 03:02:14;;;;;;;3.80;2.90;;;;;;;7.49;86.70;96937.75;110221;1244;59712;-72
2023/04/21 03:04:45;;;;;;;5.00;2.20;;;;;;;7.47;87.84;96939.76;110307;1242;59688;-71
2023/04/21 03:07:15;;;;;;;3.30;2.00;;;;;;;7.47;86.88;96938.40;110423;1241;70396;-72
2023/04/21 03:09:46;;;;;;;2.60;1.80;;;;;;;7.47;84.84;96943.61;110512;1241;68562;-73
2023/04/21 03:12:17;;;;;;;4.70;2.70;;;;;;;7.46;85.88;96939.38;110253;1242;69100;-73
2023/04/21 03:14:47;;;;;;;3.30;2.30;;;;;;;7.44;86.56;96937.08;110511;1241;59737;-73
2023/04/21 03:17:17;;;;;;;2.90;2.10;;;;;;;7.43;84.62;96940.45;110420;1241;59675;-72
2023/04/21 03:19:48;;;;;;;3.00;2.10;;;;;;;7.41;83.91;96942.27;110228;1242;70482;-71
2023/04/21 03:22:18;;;;;;;2.20;1.60;;;;;;;7.39;83.94;96944.83;110306;1241;69118;-72
2023/04/21 03:24:47;;;;;;;1.70;1.40;;;;;;;7.39;83.92;96947.45;110266;1241;68504;-71
2023/04/21 03:27:17;;;;;;;3.20;2.10;;;;;;;7.39;84.39;96947.10;110213;1241;59779;-71
2023/04/21 03:29:47;;;;;;;3.60;2.70;;;;;;;7.39;84.29;96948.98;110246;1241;59695;-72
2023/04/21 03:32:19;;;;;;;4.10;2.80;;;;;;;7.37;90.85;96947.18;110246;1241;71432;-71
2023/04/21 03:34:50;;;;;;;4.30;2.40;;;;;;;7.35;89.75;96949.64;110217;1242;69262;-72
2023/04/21 03:37:20;;;;;;;4.60;3.00;;;;;;;7.31;90.01;96948.83;110179;1240;69248;-72
2023/04/21 03:39:51;;;;;;;3.60;2.30;;;;;;;7.30;89.11;96947.19;110381;1244;60122;-72
2023/04/21 03:42:20;;;;;;;3.40;2.90;;;;;;;7.29;89.42;96944.30;110277;1241;59683;-73
2023/04/21 03:44:51;;;;;;;3.50;3.20;;;;;;;7.30;90.09;96946.13;110249;1242;70628;-74
2023/04/21 03:47:20;;;;;;;;;;;;;;;7.32;88.58;96950.35;110491;1248;69232;-74
2023/04/21 03:49:50;;;;;;;2.80;2.40;;;;;;;7.34;89.18;96948.96;110414;1239;68807;-73
2023/04/21 03:52:20;;;;;;;4.40;2.10;;;;;;;7.37;86.64;96948.13;110474;1241;59740;-72
2023/04/21 03:54:50;;;;;;;3.40;1.90;;;;;;;7.40;84.72;96952.25;110474;1241;59737;-72
2023/04/21 03:57:20;;;;;;;2.50;1.80;;;;;;;7.43;83.20;96956.34;110598;1241;71321;-72
2023/04/21 03:59:49;;;;;;;3.70;2.00;;;;;;;7.47;84.04;96955.42;110589;1240;68538;-71
2023/04/21 04:02:18;;;;;;;4.60;1.80;;;;;;;7.48;82.98;96957.73;110502;1242;69875;-73
2023/04/21 04:04:48;;;;;;;2.30;1.80;;;;;;;7.54;83.00;96962.70;110284;1240;59763;-72
2023/04/21 04:07:18;;;;;;;2.90;1.80;;;;;;;7.61;82.47;96960.86;110520;1241;59657;-72
2023/04/21 04:09:48;;;;;;;9.00;2.40;;;;;;;7.68;81.04;96965.20;110422;1244;71388;-72
2023/04/21 04:12:17;;;;;;;3.10;2.00;;;;;;;7.77;79.77;96960.31;110363;1241;69857;-72
2023/04/21 04:14:45;;;;;;;3.00;2.00;;;;;;;7.88;79.03;96962.31;110299;1240;69348;-72
2023/04/21 04:17:15;;;;;;;4.30;2.20;;;;;;;8.01;78.84;96963.86;110326;1242;59750;-73
2023/04/21 04:19:44;;;;;;;3.20;1.80;;;;;;;8.15;77.77;96963.89;110360;1246;59694;-73
2023/04/21 04:22:14;;;;;;;3.10;1.80;;;;;;;8.31;75.96;96966.09;110368;1240;70484;-72
2023/04/21 04:24:43;;;;;;;4.20;1.80;;;;;;;8.47;76.11;96966.49;110363;1241;68435;-73
2023/04/21 04:27:13;;;;;;;2.40;1.60;;;;;;;8.65;76.21;96962.08;110380;1241;69889;-73
2023/04/21 04:29:42;;;;;;;3.10;1.80;;;;;;;8.85;74.33;96966.02;110310;1242;59667;-73
2023/04/21 04:32:12;;;;;;;3.30;1.80;;;;;;;9.06;73.87;96970.39;110455;1241;59734;-73
2023/04/21 04:34:41;;;;;;;3.60;1.90;;;;;;;9.33;71.11;96969.50;110409;1241;71703;-72
2023/04/21 04:37:12;;;;;;;;;;;;;;;9.60;68.70;96969.16;110519;1241;68475;-72
2023/04/21 04:39:41;;;;;;;4.50;2.10;;;;;;;9.89;66.95;96972.33;110407;1243;69886;-72
2023/04/21 04:42:11;;;;;;;3.20;2.10;;;;;;;10.08;65.02;96970.17;110470;1241;59665;-72
2023/04/21 04:44:40;;;;;;;5.40;2.20;;;;;;;10.32;66.14;96970.92;110495;1241;59634;-72
2023/04/21 04:47:09;;;;;;;4.50;2.30;;;;;;;10.59;64.25;96978.58;110528;1241;70541;-72
2023/04/21 04:49:38;;;;;;;3.70;2.20;;;;;;;10.80;62.86;96976.34;110456;1241;69456;-72
2023/04/21 04:52:07;;;;;;;4.70;2.80;;;;;;;11.00;63.79;96977.20;110458;1241;68787;-73
2023/04/21 04:54:37;;;;;;;5.90;2.30;;;;;;;11.20;61.54;96976.08;110396;1241;59741;-72
2023/04/21 04:57:06;;;;;;;4.50;2.30;;;;;;;11.47;60.96;96976.27;110444;1241;60089;-72
2023/04/21 04:59:35;;;;;;;3.60;2.20;;;;;;;11.67;60.80;96976.20;110427;1242;71388;-73
2023/04/21 05:02:06;;;;;;;6.40;3.10;;;;;;;11.65;58.27;96973.73;110600;1241;69557;-73
2023/04/21 05:04:37;;;;;;;4.60;2.00;;;;;;;11.78;57.63;96972.63;111174;1241;68557;-73
2023/04/21 05:07:06;;;;;;;7.70;4.20;;;;;;;12.01;59.90;96974.17;110478;1241;59674;-73
2023/04/21 05:09:35;;;;;;;4.60;2.00;;;;;;;12.28;58.22;96973.77;110575;1241;59627;-73
2023/04/21 05:12:04;;;;;;;5.10;2.40;;;;;;;12.65;59.08;96973.04;110442;1241;71670;-74
2023/04/21 05:14:34;;;;;;;4.40;2.10;;;;;;;13.09;58.84;96970.78;110457;1242;69208;-71
2023/04/21 05:17:03;;;;;;;4.70;2.20;;;;;;;13.44;53.93;96970.43;110489;1241;68226;-72
2023/04/21 05:19:35;;;;;;;9.10;2.40;;;;;;;13.65;52.04;96967.11;110493;1242;59692;-72
2023/04/21 05:22:07;;;;;;;6.50;2.00;;;;;;;13.73;51.87;96968.01;110381;1240;59728;-78
2023/04/21 05:24:37;;;;;;;5.40;2.00;;;;;;;13.87;51.72;96967.22;110541;1241;71313;-76
2023/04/21 05:27:06;;;;;;;4.10;2.00;;;;;;;14.31;53.15;96965.20;110616;1242;69543;-77
2023/04/21 05:29:36;;;;;;;4.20;1.90;;;;;;;14.55;49.21;96963.67;110505;1241;68510;-77
2023/04/21 05:32:05;;;;;;;4.20;1.90;;;;;;;14.43;49.34;96959.30;110384;1241;59682;-77
2023/04/21 05:34:37;;;;;;;;;;;;;;;14.53;49.43;96961.02;110423;1240;59722;-77
2023/04/21 05:37:06;;;;;;;6.30;2.10;;;;;;;14.53;50.14;96959.77;110447;1241;71435;-77
2023/04/21 05:39:36;;;;;;;;;;;;;;;14.72;50.09;96965.33;110350;1242;69781;-76
2023/04/21 05:42:05;;;;;;;4.50;2.40;;;;;;;14.96;49.03;96967.32;110489;1241;69213;-77
2023/04/21 05:44:36;;;;;;;4.70;1.90;;;;;;;15.12;47.68;96961.06;110347;1241;59704;-77
2023/04/21 05:47:06;;;;;;;;;;;;;;;15.51;48.28;96960.22;110420;1241;59767;-76
2023/04/21 05:49:35;;;;;;;5.90;2.00;;;;;;;15.51;45.68;96955.42;110503;1240;70536;-80
2023/04/21 05:52:09;;;;;;;4.40;2.10;;;;;;;15.75;45.14;96948.44;110286;1241;68770;-81
2023/04/21 05:54:39;;;;;;;5.60;1.80;;;;;;;15.61;44.81;96949.02;110320;1241;67688;-81
2023/04/21 05:57:08;;;;;;;2.90;1.40;;;;;;;15.43;44.51;96942.89;110460;1240;59659;-79
2023/04/21 05:59:37;;;;;;;5.70;2.10;;;;;;;15.37;45.10;96945.30;110515;1241;59679;-78
2023/04/21 06:02:06;;;;;;;3.10;1.60;;;;;;;15.09;45.00;96940.10;110380;1241;70891;-80
2023/04/21 06:04:35;;;;;;;3.80;1.60;;;;;;;14.60;44.94;96939.64;110621;1241;69823;-77
2023/04/21 06:07:06;;;;;;;3.00;1.50;;;;;;;14.42;46.41;96942.04;110875;1241;69089;-79
2023/04/21 06:09:35;;;;;;;4.00;1.60;;;;;;;14.54;46.42;96947.00;111726;1241;59689;-80
2023/04/21 06:12:05;;;;;;;5.90;1.80;;;;;;;14.90;46.53;96950.80;110551;1241;59681;-79
2023/04/21 06:14:33;;;;;;;2.70;1.40;;;;;;;15.39;45.50;96951.05;110660;1241;71349;-79
2023/04/21 06:17:02;;;;;;;4.00;1.40;;;;;;;15.86;44.03;96946.83;110536;1242;69235;-79
2023/04/21 06:19:36;;;;;;;5.30;1.40;;;;;;;16.35;43.23;96939.65;110560;1242;69201;-79
2023/04/21 06:22:05;;;;;;;2.30;1.30;;;;;;;16.77;40.74;96941.98;110661;1239;59743;-79
2023/04/21 06:24:33;;;;;;;3.00;1.20;;;;;;;17.02;40.85;96941.48;110587;1240;59689;-78
2023/04/21 06:27:02;;;;;;;3.00;1.50;;;;;;;17.37;40.79;96942.95;110361;1242;71854;-77
2023/04/21 06:29:31;;;;;;;2.20;1.30;;;;;;;17.60;39.41;96940.30;110192;1242;69194;-77
2023/04/21 06:32:00;;;;;;;2.60;1.40;;;;;;;18.03;38.76;96942.72;110497;1241;68489;-81
2023/04/21 06:34:29;;;;;;;3.10;1.90;;;;;;;18.34;37.25;96939.42;110482;1241;59751;-80
2023/04/21 06:36:59;;;;;;;3.30;1.80;;;;;;;18.53;36.87;96939.08;110586;1242;59682;-79
2023/04/21 06:39:27;;;;;;;5.20;1.50;;;;;;;18.42;36.77;96944.52;110482;1241;71131;-77
2023/04/21 06:41:58;;;;;;;2.80;1.30;;;;;;;18.33;37.14;96944.85;110397;1241;68364;-78
2023/04/21 06:44:28;;;;;;;4.30;1.40;;;;;;;18.62;37.75;96946.48;110290;1242;70256;-77
2023/04/21 06:46:57;;;;;;;3.30;1.50;;;;;;;18.19;36.97;96947.39;110392;1241;59748;-80
2023/04/21 06:49:25;;;;;;;4.80;1.60;;;;;;;17.78;37.29;96946.52;110389;1241;59726;-76
2023/04/21 06:51:54;;;;;;;2.50;1.60;;;;;;;17.25;37.90;96942.73;110413;1241;70891;-80
2023/04/21 06:54:23;;;;;;;4.70;1.90;;;;;;;17.53;37.66;96945.89;110466;1240;69415;-80
2023/04/21 06:56:52;;;;;;;3.90;1.80;;;;;;;17.78;37.40;96939.08;110533;1241;69417;-80
2023/04/21 06:59:21;;;;;;;7.30;2.30;;;;;;;18.05;37.63;96940.17;110553;1238;59686;-77
2023/04/21 07:01:51;;;;;;;5.50;2.00;;;;;;;18.40;37.79;96936.64;110591;1240;59740;-80
2023/04/21 07:04:20;;;;;;;6.40;2.00;;;;;;;18.77;37.43;96947.79;110490;1241;70482;-80
2023/04/21 07:06:50;;;;;;;4.20;1.80;;;;;;;18.65;36.35;96944.73;110566;1241;68341;-78
2023/04/21 07:09:18;;;;;;;7.90;2.40;;;;;;;18.68;36.19;96948.32;110507;1241;69269;-80
2023/04/21 07:11:47;;;;;;;7.10;2.60;;;;;;;18.71;36.26;96949.89;110550;1241;59714;-77
2023/04/21 07:14:16;;;;;;;5.00;2.40;;;;;;;18.53;36.95;96951.88;111540;1241;58811;-78
2023/04/21 07:16:45;;;;;;;5.40;1.80;;;;;;;18.72;36.98;96952.99;110483;1240;71739;-79
2023/04/21 07:19:14;;;;;;;4.80;1.80;;;;;;;18.07;36.91;96952.30;110615;1241;69202;-81
2023/04/21 07:21:43;;;;;;;4.70;1.80;;;;;;;17.68;38.27;96954.11;110562;1241;69870;-80
2023/04/21 07:24:12;;;;;;;5.20;2.30;;;;;;;17.96;38.06;96951.02;110416;1241;59705;-79
2023/04/21 07:26:41;;;;;;;3.70;2.10;;;;;;;18.30;37.22;96948.98;110215;1247;59743;-81
2023/04/21 07:29:09;;;;;;;6.00;2.70;;;;;;;18.69;37.45;96945.86;110380;1243;71951;-80
2023/04/21 07:31:38;;;;;;;6.50;2.10;;;;;;;18.96;37.01;96946.66;110428;1240;68474;-80
2023/04/21 07:34:07;;;;;;;4.10;2.10;;;;;;;19.47;36.66;96945.21;110320;1242;69255;-78
2023/04/21 07:36:37;;;;;;;6.50;2.20;;;;;;;19.97;36.14;96944.50;110363;1245;59689;-77
2023/04/21 07:39:06;;;;;;;4.90;2.30;;;;;;;20.43;35.22;96939.42;110306;1241;59637;-78
2023/04/21 07:41:35;;;;;;;8.50;2.30;;;;;;;20.69;34.47;96940.59;110303;1241;71516;-78
2023/04/21 07:44:04;;;;;;;3.30;1.90;;;;;;;20.76;34.24;96939.65;110268;1245;68122;-79
2023/04/21 07:46:33;;;;;;;5.20;2.60;;;;;;;20.66;33.92;96940.52;110260;1244;70224;-78
2023/04/21 07:49:02;;;;;;;6.60;2.40;;;;;;;20.55;33.37;96939.14;110259;1243;59709;-77
2023/04/21 07:51:31;;;;;;;5.10;2.20;;;;;;;20.87;34.05;96945.30;110164;1241;59727;-77
2023/04/21 07:54:00;;;;;;;5.60;2.40;;;;;;;21.20;34.22;96943.46;110137;1245;70533;-77
2023/04/21 07:56:30;;;;;;;5.30;2.50;;;;;;;21.39;33.28;96944.05;110331;1244;69216;-77
2023/04/21 07:58:59;;;;;;;4.60;2.20;;;;;;;18.61;35.62;96944.17;110265;1244;69144;-77
2023/04/21 08:01:28;;;;;;;4.70;2.30;;;;;;;18.29;36.78;96937.02;110263;1243;59748;-78
2023/04/21 08:03:56;;;;;;;5.00;2.40;;;;;;;19.01;36.49;96940.02;110282;1243;59656;-77
2023/04/21 08:06:26;;;;;;;4.20;2.30;;;;;;;18.65;36.58;96938.25;110291;1244;70626;-78
2023/04/21 08:08:55;;;;;;;5.20;2.20;;;;;;;19.21;36.34;96935.30;110251;1243;69211;-76
2023/04/21 08:11:24;;;;;;;5.30;3.00;;;;;;;19.61;34.87;96935.09;110203;1241;69137;-78
2023/04/21 08:13:53;;;;;;;4.10;2.50;;;;;;;19.65;35.14;96933.05;110326;1244;59734;-78
2023/04/21 08:16:24;;;;;;;5.70;2.90;;;;;;;19.58;35.98;96933.48;110321;1243;59744;-78
2023/04/21 08:18:53;;;;;;;7.30;2.70;;;;;;;20.13;35.25;96920.46;111086;1241;71967;-78
2023/04/21 08:21:23;;;;;;;4.40;2.50;;;;;;;20.27;36.02;96918.56;111033;1241;69478;-78
2023/04/21 08:23:54;;;;;;;5.80;2.60;;;;;;;20.60;35.56;96917.90;110545;1241;69196;-78
2023/04/21 08:26:24;;;;;;;4.30;3.00;;;;;;;20.53;33.36;96915.31;110306;1244;59688;-78
2023/04/21 08:28:53;;;;;;;4.20;2.80;;;;;;;21.06;33.52;96917.86;110272;1244;59644;-76
2023/04/21 08:31:21;;;;;;;5.00;2.90;;;;;;;21.66;32.43;96907.61;110276;1243;71147;-76
2023/04/21 08:33:52;;;;;;;7.80;3.10;;;;;;;22.12;31.77;96905.83;110237;1244;69082;-78
2023/04/21 08:36:32;;;;;;;5.70;3.10;;;;;;;22.31;31.29;96900.35;110234;1241;69356;-78
2023/04/21 08:39:01;;;;;;;6.00;2.80;;;;;;;22.57;31.15;96904.88;109858;1244;515311;-78
2023/04/21 08:41:30;;;;;;;4.30;2.60;;;;;;;22.78;31.39;96903.52;110247;1243;59666;-78
2023/04/21 08:43:59;;;;;;;5.70;2.50;;;;;;;23.05;30.57;96900.54;110297;1241;71758;-77
2023/04/21 08:46:30;;;;;;;7.20;3.30;;;;;;;23.38;31.22;96900.04;110259;1241;69814;-79
2023/04/21 08:49:00;;;;;;;7.30;3.40;;;;;;;22.80;30.13;96896.89;110243;1241;68541;-78
2023/04/21 08:51:30;;;;;;;6.30;2.70;;;;;;;23.00;29.77;96895.80;110245;1243;59631;-79
2023/04/21 08:53:59;;;;;;;4.70;3.10;;;;;;;23.36;29.60;96895.31;110304;1241;59754;-78
2023/04/21 08:56:27;;;;;;;5.30;2.80;;;;;;;23.53;30.00;96884.81;110369;1242;72016;-77
2023/04/21 08:58:56;;;;;;;5.20;2.80;;;;;;;23.98;29.94;96885.23;110353;1242;68897;-77
2023/04/21 09:01:25;;;;;;;4.50;2.80;;;;;;;24.31;29.33;96879.67;110311;1242;69263;-77
2023/04/21 09:04:17;;;;;;;8.10;3.30;;;;;;;23.89;28.31;96873.51;110305;1241;59693;-78
2023/04/21 09:06:46;;;;;;;5.70;2.80;;;;;;;24.05;28.91;96883.78;110482;1241;59703;-76
2023/04/21 09:09:15;;;;;;;;;;;;;;;24.02;26.84;96886.01;110306;1244;71394;-76
2023/04/21 09:11:53;;;;;;;;;;;;;;;24.13;25.60;96878.25;110435;1242;69239;-76
2023/04/21 09:14:30;;;;;;;5.00;3.30;;;;;;;24.23;26.34;96880.81;110364;1242;69139;-76
2023/04/21 09:17:03;;;;;;;8.30;3.60;;;;;;;24.53;25.03;96880.70;110361;1242;59744;-76
2023/04/21 09:19:33;;;;;;;7.00;3.80;;;;;;;24.19;25.78;96883.05;110409;1242;59632;-76
2023/04/21 09:22:03;;;;;;;7.50;3.50;;;;;;;23.38;24.14;96881.57;110452;1242;72001;-77
2023/04/21 09:24:32;;;;;;;4.00;2.90;;;;;;;23.79;25.52;96874.30;110524;1241;68623;-77
2023/04/21 09:27:03;;;;;;;7.00;3.10;;;;;;;23.97;25.29;96871.10;110581;1241;69867;-73
2023/04/21 09:29:32;;;;;;;5.40;2.90;;;;;;;24.58;26.89;96867.00;110599;1241;59740;-76
2023/04/21 09:32:01;;;;;;;5.50;3.30;;;;;;;25.15;26.23;96871.45;110502;1240;59741;-77
2023/04/21 09:34:29;;;;;;;5.50;3.00;;;;;;;25.26;25.48;96868.54;110508;1240;70634;-78
2023/04/21 09:37:02;;;;;;;7.30;3.80;;;;;;;25.05;25.72;96870.83;110481;1240;69163;-76
2023/04/21 09:39:32;;;;;;;8.70;4.10;;;;;;;25.24;24.84;96866.19;110562;1240;69352;-75
2023/04/21 09:42:28;;;;;;;7.00;3.70;;;;;;;24.93;24.89;96867.15;110487;1241;59694;-76
2023/04/21 09:44:57;;;;;;;6.80;4.10;;;;;;;24.84;24.56;96864.95;110516;1241;59679;-76
2023/04/21 09:47:52;;;;;;;6.40;3.80;;;;;;;24.78;23.41;96863.50;110413;1242;71190;-76
2023/04/21 09:50:23;;;;;;;5.70;3.00;;;;;;;24.34;24.94;96868.68;110517;1241;68441;-76
2023/04/21 09:53:15;;;;;;;6.00;3.50;;;;;;;24.91;23.82;96870.45;110395;1241;69318;-76
2023/04/21 09:55:49;;;;;;;7.90;3.80;;;;;;;25.51;23.13;96863.86;110494;1240;59734;-78
2023/04/21 09:58:21;;;;;;;6.00;3.30;;;;;;;25.93;23.50;96859.04;110527;1241;59674;-76
2023/04/21 10:00:52;;;;;;;7.70;3.60;;;;;;;25.74;23.24;96865.41;110488;1243;71999;-77
2023/04/21 10:03:27;;;;;;;4.80;3.40;;;;;;;24.95;24.09;96865.75;110417;1241;69819;-76
2023/04/21 10:05:57;;;;;;;6.00;3.10;;;;;;;24.40;24.20;96870.20;110467;1241;68338;-76
2023/04/21 10:08:26;;;;;;;4.90;3.40;;;;;;;24.21;24.74;96870.10;110450;1241;59780;-77
2023/04/21 10:10:55;;;;;;;5.20;3.70;;;;;;;24.04;24.14;96866.89;110565;1242;59692;-75
2023/04/21 10:13:24;;;;;;;6.00;3.40;;;;;;;24.07;23.85;96864.42;110441;1241;70637;-76
2023/04/21 10:16:06;;;;;;;7.50;3.40;;;;;;;24.36;25.11;96865.23;110430;1241;69100;-75
2023/04/21 10:18:43;;;;;;;6.20;3.80;;;;;;;24.21;25.15;96862.42;110540;1241;70197;-77
2023/04/21 10:21:20;;;;;;;7.30;4.00;;;;;;;23.25;24.63;96869.17;110494;1242;59753;-76
2023/04/21 10:23:52;;;;;;;5.80;3.50;;;;;;;22.73;25.19;96869.59;110534;1241;59750;-77
2023/04/21 10:26:24;;;;;;;5.20;3.30;;;;;;;21.74;26.27;96867.93;110658;1241;71969;-76
2023/04/21 10:28:58;;;;;;;7.90;3.70;;;;;;;22.20;26.59;96863.79;111003;1240;69550;-76
2023/04/21 10:31:48;;;;;;;7.20;3.80;;;;;;;22.12;27.71;96862.39;110520;1241;68886;-77
2023/04/21 10:34:25;;;;;;;;;;;;;;;22.18;27.78;96865.92;110628;1241;59947;-77
2023/04/21 10:36:54;;;;;;;7.10;4.20;;;;;;;21.82;27.98;96872.64;110545;1241;59678;-77
2023/04/21 10:39:50;;;;;;;5.90;3.20;;;;;;;21.82;26.98;96872.23;110490;1240;72068;-77
2023/04/21 10:42:23;;;;;;;7.50;3.60;;;;;;;21.90;26.72;96868.64;110539;1241;69172;-77
2023/04/21 10:44:55;;;;;;;4.30;2.60;;;;;;;21.92;26.82;96867.10;110528;1241;69863;-77
2023/04/21 10:47:26;;;;;;;6.60;4.20;;;;;;;21.90;27.48;96867.78;110483;1241;60214;-76
2023/04/21 10:49:56;;;;;;;6.70;3.70;;;;;;;21.90;27.13;96869.38;110641;1246;59747;-76
2023/04/21 10:52:32;;;;;;;6.70;3.30;;;;;;;21.84;27.08;96869.11;110552;1241;71438;-77
2023/04/21 10:55:01;;;;;;;10.20;4.10;;;;;;;21.61;26.87;96868.29;110459;1240;68526;-77
2023/04/21 10:57:33;;;;;;;5.20;3.70;;;;;;;20.97;26.93;96868.07;110482;1241;68521;-76
2023/04/21 11:00:06;;;;;;;4.70;3.40;;;;;;;20.25;27.34;96868.34;110460;1239;59615;-75
2023/04/21 11:02:34;;;;;;;7.00;3.40;;;;;;;19.80;28.83;96875.78;110449;1241;59704;-76
2023/04/21 11:05:08;;;;;;;6.70;4.20;;;;;;;19.47;28.94;96873.89;110480;1241;70642;-77
2023/04/21 11:07:37;;;;;;;8.70;4.00;;;;;;;19.29;29.51;96878.92;110431;1241;69535;-76
2023/04/21 11:10:07;;;;;;;7.40;4.30;;;;;;;19.16;30.29;96878.73;110409;1241;69588;-76
2023/04/21 11:12:39;;;;;;;7.80;4.10;;;;;;;19.06;30.83;96880.75;110435;1241;59660;-77
2023/04/21 11:15:12;;;;;;;6.90;3.60;;;;;;;19.00;31.03;96879.84;110385;1242;59659;-76
2023/04/21 11:17:45;;;;;;;5.80;3.80;;;;;;;19.28;31.47;96880.72;110485;1241;71920;-76
2023/04/21 11:20:15;;;;;;;6.00;3.20;;;;;;;19.59;30.29;96875.42;110499;1241;69183;-77
2023/04/21 11:22:43;;;;;;;5.70;3.20;;;;;;;19.84;30.18;96877.16;110437;1241;69887;-76
2023/04/21 11:25:18;;;;;;;5.10;3.50;;;;;;;19.97;30.09;96877.21;110420;1241;59754;-76
2023/04/21 11:27:54;;;;;;;7.30;4.00;;;;;;;20.33;30.04;96878.27;110474;1240;59738;-75
2023/04/21 11:30:32;;;;;;;5.90;3.30;;;;;;;20.83;29.57;96877.00;110641;1241;71402;-76
2023/04/21 11:33:02;;;;;;;7.60;3.60;;;;;;;20.93;28.38;96874.11;111138;1241;69090;-76
2023/04/21 11:35:31;;;;;;;4.20;3.10;;;;;;;21.07;28.88;96874.02;110554;1242;69770;-77
2023/04/21 11:38:04;;;;;;;5.40;3.40;;;;;;;21.07;29.12;96873.19;110569;1241;59691;-76
2023/04/21 11:40:46;;;;;;;7.00;3.40;;;;;;;20.96;28.49;96874.96;110572;1242;59646;-76
2023/04/21 11:43:16;;;;;;;6.60;3.80;;;;;;;20.41;29.21;96876.23;110465;1241;71233;-77
2023/04/21 11:45:48;;;;;;;8.80;4.60;;;;;;;19.85;30.33;96875.21;110349;1241;69238;-76
2023/04/21 11:48:20;;;;;;;7.10;3.80;;;;;;;19.55;30.42;96876.94;110455;1241;68524;-76